sensor_id;sensor_type;location;lat;lon;timestamp;temperature;humidity
78775;DHT22;68119;43.398;3.676;2023-02-28T00:00:44;4.50;60.70
78775;DHT22;68119;43.398;3.676;2023-02-28T00:03:15;4.50;61.40
78775;DHT22;68119;43.398;3.676;2023-02-28T00:05:50;4.50;61.10
78775;DHT22;68119;43.398;3.676;2023-02-28T00:08:21;4.40;61.10
78775;DHT22;68119;43.398;3.676;2023-02-28T00:10:49;4.40;61.00
78775;DHT22;68119;43.398;3.676;2023-02-28T00:13:23;4.40;60.50
78775;DHT22;68119;43.398;3.676;2023-02-28T00:16:04;4.40;60.30
78775;DHT22;68119;43.398;3.676;2023-02-28T00:18:36;4.50;60.40
78775;DHT22;68119;43.398;3.676;2023-02-28T00:21:10;4.50;60.20
78775;DHT22;68119;43.398;3.676;2023-02-28T00:23:39;4.50;61.00
78775;DHT22;68119;43.398;3.676;2023-02-28T00:26:10;4.50;60.20
78775;DHT22;68119;43.398;3.676;2023-02-28T00:28:40;4.50;60.00
78775;DHT22;68119;43.398;3.676;2023-02-28T00:31:13;4.50;60.70
78775;DHT22;68119;43.398;3.676;2023-02-28T00:33:48;4.50;60.60
78775;DHT22;68119;43.398;3.676;2023-02-28T00:36:18;4.50;60.20
78775;DHT22;68119;43.398;3.676;2023-02-28T00:38:46;4.50;60.00
78775;DHT22;68119;43.398;3.676;2023-02-28T00:41:18;4.50;60.20
78775;DHT22;68119;43.398;3.676;2023-02-28T00:43:49;4.50;60.10
78775;DHT22;68119;43.398;3.676;2023-02-28T00:46:17;4.50;60.60
78775;DHT22;68119;43.398;3.676;2023-02-28T00:48:52;4.50;61.00
78775;DHT22;68119;43.398;3.676;2023-02-28T00:51:23;4.40;60.40
78775;DHT22;68119;43.398;3.676;2023-02-28T00:53:54;4.50;60.40
78775;DHT22;68119;43.398;3.676;2023-02-28T00:56:20;4.40;60.40
78775;DHT22;68119;43.398;3.676;2023-02-28T00:58:54;4.40;60.80
78775;DHT22;68119;43.398;3.676;2023-02-28T01:01:23;4.40;60.50
78775;DHT22;68119;43.398;3.676;2023-02-28T01:03:49;4.40;60.60
78775;DHT22;68119;43.398;3.676;2023-02-28T01:06:17;4.40;60.30
78775;DHT22;68119;43.398;3.676;2023-02-28T01:08:48;4.40;60.70
78775;DHT22;68119;43.398;3.676;2023-02-28T01:11:20;4.40;60.40
78775;DHT22;68119;43.398;3.676;2023-02-28T01:13:56;4.40;60.40
78775;DHT22;68119;43.398;3.676;2023-02-28T01:16:28;4.40;61.00
78775;DHT22;68119;43.398;3.676;2023-02-28T01:19:02;4.40;60.40
78775;DHT22;68119;43.398;3.676;2023-02-28T01:21:32;4.40;60.70
78775;DHT22;68119;43.398;3.676;2023-02-28T01:24:02;4.40;60.70
78775;DHT22;68119;43.398;3.676;2023-02-28T01:26:33;4.40;60.80
78775;DHT22;68119;43.398;3.676;2023-02-28T01:29:05;4.40;60.10
78775;DHT22;68119;43.398;3.676;2023-02-28T01:31:33;4.40;61.00
78775;DHT22;68119;43.398;3.676;2023-02-28T01:34:04;4.40;60.60
78775;DHT22;68119;43.398;3.676;2023-02-28T01:36:35;4.40;60.70
78775;DHT22;68119;43.398;3.676;2023-02-28T01:39:01;4.30;60.70
78775;DHT22;68119;43.398;3.676;2023-02-28T01:41:34;4.30;60.50
78775;DHT22;68119;43.398;3.676;2023-02-28T01:44:05;4.30;60.50
78775;DHT22;68119;43.398;3.676;2023-02-28T01:46:35;4.30;60.30
78775;DHT22;68119;43.398;3.676;2023-02-28T01:49:11;4.30;60.10
78775;DHT22;68119;43.398;3.676;2023-02-28T01:51:48;4.30;60.30
78775;DHT22;68119;43.398;3.676;2023-02-28T01:54:23;4.40;60.70
78775;DHT22;68119;43.398;3.676;2023-02-28T01:56:59;4.30;60.40
78775;DHT22;68119;43.398;3.676;2023-02-28T01:59:38;4.30;59.80
78775;DHT22;68119;43.398;3.676;2023-02-28T02:02:15;4.30;60.50
78775;DHT22;68119;43.398;3.676;2023-02-28T02:05:06;4.30;60.40
78775;DHT22;68119;43.398;3.676;2023-02-28T02:07:35;4.30;60.70
78775;DHT22;68119;43.398;3.676;2023-02-28T02:10:21;4.30;60.90
78775;DHT22;68119;43.398;3.676;2023-02-28T02:18:35;4.30;61.20
78775;DHT22;68119;43.398;3.676;2023-02-28T02:24:14;4.30;61.00
78775;DHT22;68119;43.398;3.676;2023-02-28T02:30:05;4.30;60.10
78775;DHT22;68119;43.398;3.676;2023-02-28T02:38:09;4.30;59.70
78775;DHT22;68119;43.398;3.676;2023-02-28T02:40:57;4.30;59.70
78775;DHT22;68119;43.398;3.676;2023-02-28T02:43:40;4.30;60.00
78775;DHT22;68119;43.398;3.676;2023-02-28T02:46:21;4.30;60.00
78775;DHT22;68119;43.398;3.676;2023-02-28T02:49:00;4.30;60.50
78775;DHT22;68119;43.398;3.676;2023-02-28T02:51:28;4.30;60.00
78775;DHT22;68119;43.398;3.676;2023-02-28T02:54:09;4.30;59.90
78775;DHT22;68119;43.398;3.676;2023-02-28T02:56:49;4.30;60.40
78775;DHT22;68119;43.398;3.676;2023-02-28T02:59:24;4.30;60.20
78775;DHT22;68119;43.398;3.676;2023-02-28T03:01:59;4.30;59.70
78775;DHT22;68119;43.398;3.676;2023-02-28T03:04:32;4.30;59.30
78775;DHT22;68119;43.398;3.676;2023-02-28T03:07:01;4.30;59.00
78775;DHT22;68119;43.398;3.676;2023-02-28T03:09:35;4.30;59.50
78775;DHT22;68119;43.398;3.676;2023-02-28T03:12:09;4.30;59.60
78775;DHT22;68119;43.398;3.676;2023-02-28T03:18:04;4.30;60.00
78775;DHT22;68119;43.398;3.676;2023-02-28T03:20:56;4.30;59.10
78775;DHT22;68119;43.398;3.676;2023-02-28T03:23:42;4.30;59.20
78775;DHT22;68119;43.398;3.676;2023-02-28T03:26:21;4.30;59.40
78775;DHT22;68119;43.398;3.676;2023-02-28T03:31:43;4.30;58.60
78775;DHT22;68119;43.398;3.676;2023-02-28T03:34:32;4.30;59.40
78775;DHT22;68119;43.398;3.676;2023-02-28T03:37:13;4.30;59.10
78775;DHT22;68119;43.398;3.676;2023-02-28T03:40:13;4.30;58.70
78775;DHT22;68119;43.398;3.676;2023-02-28T03:42:42;4.30;59.10
78775;DHT22;68119;43.398;3.676;2023-02-28T03:45:18;4.30;59.20
78775;DHT22;68119;43.398;3.676;2023-02-28T03:48:23;4.30;59.60
78775;DHT22;68119;43.398;3.676;2023-02-28T03:50:53;4.30;59.70
78775;DHT22;68119;43.398;3.676;2023-02-28T03:53:33;4.30;60.00
78775;DHT22;68119;43.398;3.676;2023-02-28T04:01:25;4.30;59.00
78775;DHT22;68119;43.398;3.676;2023-02-28T04:04:00;4.30;58.90
78775;DHT22;68119;43.398;3.676;2023-02-28T04:06:34;4.30;59.20
78775;DHT22;68119;43.398;3.676;2023-02-28T04:09:06;4.30;58.70
78775;DHT22;68119;43.398;3.676;2023-02-28T04:11:39;4.30;58.30
78775;DHT22;68119;43.398;3.676;2023-02-28T04:14:14;4.40;58.70
78775;DHT22;68119;43.398;3.676;2023-02-28T04:16:48;4.30;58.50
78775;DHT22;68119;43.398;3.676;2023-02-28T04:19:17;4.30;59.30
78775;DHT22;68119;43.398;3.676;2023-02-28T04:21:53;4.30;59.00
78775;DHT22;68119;43.398;3.676;2023-02-28T04:24:24;4.30;58.40
78775;DHT22;68119;43.398;3.676;2023-02-28T04:26:57;4.30;58.80
78775;DHT22;68119;43.398;3.676;2023-02-28T04:29:30;4.30;57.90
78775;DHT22;68119;43.398;3.676;2023-02-28T04:32:00;4.30;58.00
78775;DHT22;68119;43.398;3.676;2023-02-28T04:34:31;4.30;58.00
78775;DHT22;68119;43.398;3.676;2023-02-28T04:37:05;4.30;58.20
78775;DHT22;68119;43.398;3.676;2023-02-28T04:39:38;4.30;58.10
78775;DHT22;68119;43.398;3.676;2023-02-28T04:42:15;4.20;58.20
78775;DHT22;68119;43.398;3.676;2023-02-28T04:44:49;4.30;58.00
78775;DHT22;68119;43.398;3.676;2023-02-28T04:47:17;4.20;58.30
78775;DHT22;68119;43.398;3.676;2023-02-28T04:49:52;4.20;58.40
78775;DHT22;68119;43.398;3.676;2023-02-28T04:52:21;4.20;57.80
78775;DHT22;68119;43.398;3.676;2023-02-28T04:54:46;4.20;58.30
78775;DHT22;68119;43.398;3.676;2023-02-28T04:57:22;4.20;58.50
78775;DHT22;68119;43.398;3.676;2023-02-28T04:59:58;4.20;58.60
78775;DHT22;68119;43.398;3.676;2023-02-28T05:02:26;4.10;59.00
78775;DHT22;68119;43.398;3.676;2023-02-28T05:04:57;4.10;58.30
78775;DHT22;68119;43.398;3.676;2023-02-28T05:07:23;4.10;58.70
78775;DHT22;68119;43.398;3.676;2023-02-28T05:09:54;4.10;58.70
78775;DHT22;68119;43.398;3.676;2023-02-28T05:12:22;4.10;58.70
78775;DHT22;68119;43.398;3.676;2023-02-28T05:14:50;4.20;58.60
78775;DHT22;68119;43.398;3.676;2023-02-28T05:17:24;4.20;58.50
78775;DHT22;68119;43.398;3.676;2023-02-28T05:19:52;4.20;58.00
78775;DHT22;68119;43.398;3.676;2023-02-28T05:22:21;4.20;58.10
78775;DHT22;68119;43.398;3.676;2023-02-28T05:24:46;4.20;58.30
78775;DHT22;68119;43.398;3.676;2023-02-28T05:27:17;4.20;57.40
78775;DHT22;68119;43.398;3.676;2023-02-28T05:29:43;4.20;57.50
78775;DHT22;68119;43.398;3.676;2023-02-28T05:32:13;4.30;58.00
78775;DHT22;68119;43.398;3.676;2023-02-28T05:34:45;4.30;58.30
78775;DHT22;68119;43.398;3.676;2023-02-28T05:37:16;4.20;58.40
78775;DHT22;68119;43.398;3.676;2023-02-28T05:39:46;4.30;58.00
78775;DHT22;68119;43.398;3.676;2023-02-28T05:42:20;4.20;58.30
78775;DHT22;68119;43.398;3.676;2023-02-28T05:44:50;4.20;58.20
78775;DHT22;68119;43.398;3.676;2023-02-28T05:47:19;4.30;57.80
78775;DHT22;68119;43.398;3.676;2023-02-28T05:49:58;4.30;57.70
78775;DHT22;68119;43.398;3.676;2023-02-28T05:52:26;4.30;57.80
78775;DHT22;68119;43.398;3.676;2023-02-28T05:54:57;4.30;58.00
78775;DHT22;68119;43.398;3.676;2023-02-28T05:57:31;4.30;57.50
78775;DHT22;68119;43.398;3.676;2023-02-28T06:00:04;4.30;57.30
78775;DHT22;68119;43.398;3.676;2023-02-28T06:02:44;4.20;56.80
78775;DHT22;68119;43.398;3.676;2023-02-28T06:05:17;4.20;56.80
78775;DHT22;68119;43.398;3.676;2023-02-28T06:07:43;4.30;57.10
78775;DHT22;68119;43.398;3.676;2023-02-28T06:10:17;4.20;56.90
78775;DHT22;68119;43.398;3.676;2023-02-28T06:12:48;4.20;56.80
78775;DHT22;68119;43.398;3.676;2023-02-28T06:15:17;4.20;56.50
78775;DHT22;68119;43.398;3.676;2023-02-28T06:17:45;4.20;56.70
78775;DHT22;68119;43.398;3.676;2023-02-28T06:20:16;4.20;56.30
78775;DHT22;68119;43.398;3.676;2023-02-28T06:22:42;4.20;56.20
78775;DHT22;68119;43.398;3.676;2023-02-28T06:25:09;4.20;56.10
78775;DHT22;68119;43.398;3.676;2023-02-28T06:27:42;4.20;56.10
78775;DHT22;68119;43.398;3.676;2023-02-28T06:30:18;4.20;56.40
78775;DHT22;68119;43.398;3.676;2023-02-28T06:32:53;4.10;55.70
78775;DHT22;68119;43.398;3.676;2023-02-28T06:35:24;4.20;56.20
78775;DHT22;68119;43.398;3.676;2023-02-28T06:37:55;4.20;56.00
78775;DHT22;68119;43.398;3.676;2023-02-28T06:40:27;4.20;55.70
78775;DHT22;68119;43.398;3.676;2023-02-28T06:43:09;4.10;55.50
78775;DHT22;68119;43.398;3.676;2023-02-28T06:45:43;4.10;55.80
78775;DHT22;68119;43.398;3.676;2023-02-28T06:48:15;4.10;55.70
78775;DHT22;68119;43.398;3.676;2023-02-28T06:50:47;4.10;55.50
78775;DHT22;68119;43.398;3.676;2023-02-28T06:53:16;4.10;55.70
78775;DHT22;68119;43.398;3.676;2023-02-28T06:55:48;4.10;55.80
78775;DHT22;68119;43.398;3.676;2023-02-28T06:58:17;4.10;55.40
78775;DHT22;68119;43.398;3.676;2023-02-28T07:00:51;4.10;55.80
78775;DHT22;68119;43.398;3.676;2023-02-28T07:03:17;4.10;55.80
78775;DHT22;68119;43.398;3.676;2023-02-28T07:05:49;4.10;56.00
78775;DHT22;68119;43.398;3.676;2023-02-28T07:08:14;4.10;55.80
78775;DHT22;68119;43.398;3.676;2023-02-28T07:10:45;4.10;55.70
78775;DHT22;68119;43.398;3.676;2023-02-28T07:13:13;4.10;56.50
78775;DHT22;68119;43.398;3.676;2023-02-28T07:15:42;4.20;56.30
78775;DHT22;68119;43.398;3.676;2023-02-28T07:18:13;4.20;55.90
78775;DHT22;68119;43.398;3.676;2023-02-28T07:20:44;4.20;55.70
78775;DHT22;68119;43.398;3.676;2023-02-28T07:23:18;4.20;55.80
78775;DHT22;68119;43.398;3.676;2023-02-28T07:25:44;4.20;56.30
78775;DHT22;68119;43.398;3.676;2023-02-28T07:28:17;4.20;55.80
78775;DHT22;68119;43.398;3.676;2023-02-28T07:30:49;4.20;55.80
78775;DHT22;68119;43.398;3.676;2023-02-28T07:33:20;4.20;54.90
78775;DHT22;68119;43.398;3.676;2023-02-28T07:35:48;4.20;55.30
78775;DHT22;68119;43.398;3.676;2023-02-28T07:38:17;4.20;55.90
78775;DHT22;68119;43.398;3.676;2023-02-28T07:40:51;4.20;55.80
78775;DHT22;68119;43.398;3.676;2023-02-28T07:43:17;4.30;55.50
78775;DHT22;68119;43.398;3.676;2023-02-28T07:45:45;4.30;54.70
78775;DHT22;68119;43.398;3.676;2023-02-28T07:48:16;4.30;54.80
78775;DHT22;68119;43.398;3.676;2023-02-28T07:50:54;4.30;55.20
78775;DHT22;68119;43.398;3.676;2023-02-28T07:53:28;4.30;55.40
78775;DHT22;68119;43.398;3.676;2023-02-28T07:55:58;4.30;55.70
78775;DHT22;68119;43.398;3.676;2023-02-28T07:58:28;4.30;56.00
78775;DHT22;68119;43.398;3.676;2023-02-28T08:00:54;4.40;56.10
78775;DHT22;68119;43.398;3.676;2023-02-28T08:03:24;4.30;55.60
78775;DHT22;68119;43.398;3.676;2023-02-28T08:05:53;4.40;55.40
78775;DHT22;68119;43.398;3.676;2023-02-28T08:08:22;4.30;54.80
78775;DHT22;68119;43.398;3.676;2023-02-28T08:10:58;4.40;54.60
78775;DHT22;68119;43.398;3.676;2023-02-28T08:13:24;4.40;54.90
78775;DHT22;68119;43.398;3.676;2023-02-28T08:15:53;4.40;54.80
78775;DHT22;68119;43.398;3.676;2023-02-28T08:18:25;4.40;54.30
78775;DHT22;68119;43.398;3.676;2023-02-28T08:20:51;4.40;54.10
78775;DHT22;68119;43.398;3.676;2023-02-28T08:23:24;4.40;54.40
78775;DHT22;68119;43.398;3.676;2023-02-28T08:25:59;4.40;54.60
78775;DHT22;68119;43.398;3.676;2023-02-28T08:28:28;4.40;54.30
78775;DHT22;68119;43.398;3.676;2023-02-28T08:31:00;4.40;54.10
78775;DHT22;68119;43.398;3.676;2023-02-28T08:33:31;4.40;53.90
78775;DHT22;68119;43.398;3.676;2023-02-28T08:36:00;4.40;54.00
78775;DHT22;68119;43.398;3.676;2023-02-28T08:38:31;4.40;55.20
78775;DHT22;68119;43.398;3.676;2023-02-28T08:41:08;4.30;54.00
78775;DHT22;68119;43.398;3.676;2023-02-28T08:43:40;4.30;54.30
78775;DHT22;68119;43.398;3.676;2023-02-28T08:46:12;4.30;55.20
78775;DHT22;68119;43.398;3.676;2023-02-28T08:48:44;4.40;53.90
78775;DHT22;68119;43.398;3.676;2023-02-28T08:51:14;4.30;54.50
78775;DHT22;68119;43.398;3.676;2023-02-28T08:53:46;4.40;54.50
78775;DHT22;68119;43.398;3.676;2023-02-28T08:56:20;4.50;55.00
78775;DHT22;68119;43.398;3.676;2023-02-28T08:58:55;4.60;54.60
78775;DHT22;68119;43.398;3.676;2023-02-28T09:01:27;4.80;54.40
78775;DHT22;68119;43.398;3.676;2023-02-28T09:03:57;4.80;54.10
78775;DHT22;68119;43.398;3.676;2023-02-28T09:06:32;4.70;53.50
78775;DHT22;68119;43.398;3.676;2023-02-28T09:09:08;4.70;53.60
78775;DHT22;68119;43.398;3.676;2023-02-28T09:11:38;4.70;53.90
78775;DHT22;68119;43.398;3.676;2023-02-28T09:14:11;4.70;53.50
78775;DHT22;68119;43.398;3.676;2023-02-28T09:16:42;4.90;53.30
78775;DHT22;68119;43.398;3.676;2023-02-28T09:19:11;5.00;53.20
78775;DHT22;68119;43.398;3.676;2023-02-28T09:21:40;4.70;53.10
78775;DHT22;68119;43.398;3.676;2023-02-28T09:24:09;5.00;54.00
78775;DHT22;68119;43.398;3.676;2023-02-28T09:26:40;5.30;53.50
78775;DHT22;68119;43.398;3.676;2023-02-28T09:29:11;5.50;53.10
78775;DHT22;68119;43.398;3.676;2023-02-28T09:31:40;5.50;51.90
78775;DHT22;68119;43.398;3.676;2023-02-28T09:34:09;5.40;51.80
78775;DHT22;68119;43.398;3.676;2023-02-28T09:36:41;5.60;52.50
78775;DHT22;68119;43.398;3.676;2023-02-28T09:39:10;5.80;52.20
78775;DHT22;68119;43.398;3.676;2023-02-28T09:41:43;6.20;51.20
78775;DHT22;68119;43.398;3.676;2023-02-28T09:47:01;6.90;50.10
78775;DHT22;68119;43.398;3.676;2023-02-28T09:49:45;7.00;50.00
78775;DHT22;68119;43.398;3.676;2023-02-28T09:52:31;6.80;49.80
78775;DHT22;68119;43.398;3.676;2023-02-28T09:55:52;7.10;50.40
78775;DHT22;68119;43.398;3.676;2023-02-28T09:58:23;6.80;49.90
78775;DHT22;68119;43.398;3.676;2023-02-28T10:01:21;6.80;49.70
78775;DHT22;68119;43.398;3.676;2023-02-28T10:04:30;7.00;50.00
78775;DHT22;68119;43.398;3.676;2023-02-28T10:07:02;7.10;49.50
78775;DHT22;68119;43.398;3.676;2023-02-28T10:09:33;6.90;50.30
78775;DHT22;68119;43.398;3.676;2023-02-28T10:12:09;6.90;50.30
78775;DHT22;68119;43.398;3.676;2023-02-28T10:14:43;6.70;50.40
78775;DHT22;68119;43.398;3.676;2023-02-28T10:17:38;6.70;50.10
78775;DHT22;68119;43.398;3.676;2023-02-28T10:20:14;6.70;50.20
78775;DHT22;68119;43.398;3.676;2023-02-28T10:23:10;6.70;50.30
78775;DHT22;68119;43.398;3.676;2023-02-28T10:25:42;7.00;50.00
78775;DHT22;68119;43.398;3.676;2023-02-28T10:28:23;7.00;49.80
78775;DHT22;68119;43.398;3.676;2023-02-28T10:30:54;7.50;50.00
78775;DHT22;68119;43.398;3.676;2023-02-28T10:33:33;7.60;49.50
78775;DHT22;68119;43.398;3.676;2023-02-28T10:36:03;8.00;49.10
78775;DHT22;68119;43.398;3.676;2023-02-28T10:38:39;7.60;48.30
78775;DHT22;68119;43.398;3.676;2023-02-28T10:41:25;7.60;49.70
78775;DHT22;68119;43.398;3.676;2023-02-28T10:44:08;7.80;49.00
78775;DHT22;68119;43.398;3.676;2023-02-28T10:46:42;7.70;48.20
78775;DHT22;68119;43.398;3.676;2023-02-28T10:49:38;7.30;48.00
78775;DHT22;68119;43.398;3.676;2023-02-28T10:52:36;7.30;48.80
78775;DHT22;68119;43.398;3.676;2023-02-28T10:55:35;7.80;48.70
78775;DHT22;68119;43.398;3.676;2023-02-28T10:58:25;8.00;48.40
78775;DHT22;68119;43.398;3.676;2023-02-28T11:00:53;8.10;48.00
78775;DHT22;68119;43.398;3.676;2023-02-28T11:03:23;8.10;47.80
78775;DHT22;68119;43.398;3.676;2023-02-28T11:05:49;8.00;47.40
78775;DHT22;68119;43.398;3.676;2023-02-28T11:08:18;8.10;48.00
78775;DHT22;68119;43.398;3.676;2023-02-28T11:10:56;8.10;47.80
78775;DHT22;68119;43.398;3.676;2023-02-28T11:13:34;7.80;48.50
78775;DHT22;68119;43.398;3.676;2023-02-28T11:16:09;7.80;48.10
78775;DHT22;68119;43.398;3.676;2023-02-28T11:21:24;8.60;47.40
78775;DHT22;68119;43.398;3.676;2023-02-28T11:23:54;8.80;47.30
78775;DHT22;68119;43.398;3.676;2023-02-28T11:27:01;9.20;46.60
78775;DHT22;68119;43.398;3.676;2023-02-28T11:29:32;9.70;45.90
78775;DHT22;68119;43.398;3.676;2023-02-28T11:32:03;9.60;45.50
78775;DHT22;68119;43.398;3.676;2023-02-28T11:34:31;9.40;45.70
78775;DHT22;68119;43.398;3.676;2023-02-28T11:36:59;8.60;45.40
78775;DHT22;68119;43.398;3.676;2023-02-28T11:39:28;8.00;46.20
78775;DHT22;68119;43.398;3.676;2023-02-28T11:47:38;8.00;47.50
78775;DHT22;68119;43.398;3.676;2023-02-28T11:53:01;7.40;48.60
78775;DHT22;68119;43.398;3.676;2023-02-28T11:55:46;7.50;48.80
78775;DHT22;68119;43.398;3.676;2023-02-28T12:15:12;7.60;48.40
78775;DHT22;68119;43.398;3.676;2023-02-28T12:22:55;7.90;47.70
78775;DHT22;68119;43.398;3.676;2023-02-28T12:28:34;8.10;47.20
78775;DHT22;68119;43.398;3.676;2023-02-28T12:31:24;8.40;47.20
78775;DHT22;68119;43.398;3.676;2023-02-28T12:34:01;8.40;47.30
78775;DHT22;68119;43.398;3.676;2023-02-28T12:36:33;8.30;46.50
78775;DHT22;68119;43.398;3.676;2023-02-28T12:39:26;9.00;46.60
78775;DHT22;68119;43.398;3.676;2023-02-28T12:42:05;10.00;45.90
78775;DHT22;68119;43.398;3.676;2023-02-28T12:47:17;12.80;42.50
78775;DHT22;68119;43.398;3.676;2023-02-28T12:49:51;12.40;42.00
78775;DHT22;68119;43.398;3.676;2023-02-28T12:52:48;11.30;42.30
78775;DHT22;68119;43.398;3.676;2023-02-28T12:55:48;10.60;43.20
78775;DHT22;68119;43.398;3.676;2023-02-28T13:01:08;10.00;45.00
78775;DHT22;68119;43.398;3.676;2023-02-28T13:09:27;9.10;45.80
78775;DHT22;68119;43.398;3.676;2023-02-28T13:11:58;8.90;45.80
78775;DHT22;68119;43.398;3.676;2023-02-28T13:19:55;8.70;46.80
78775;DHT22;68119;43.398;3.676;2023-02-28T13:22:45;8.50;46.30
78775;DHT22;68119;43.398;3.676;2023-02-28T13:28:13;8.50;46.80
78775;DHT22;68119;43.398;3.676;2023-02-28T13:31:05;8.50;47.40
78775;DHT22;68119;43.398;3.676;2023-02-28T13:33:36;8.70;47.10
78775;DHT22;68119;43.398;3.676;2023-02-28T13:38:47;8.60;47.00
78775;DHT22;68119;43.398;3.676;2023-02-28T13:49:31;9.20;46.60
78775;DHT22;68119;43.398;3.676;2023-02-28T13:52:18;9.40;46.10
78775;DHT22;68119;43.398;3.676;2023-02-28T14:05:34;9.50;46.10
78775;DHT22;68119;43.398;3.676;2023-02-28T14:08:11;9.60;45.70
78775;DHT22;68119;43.398;3.676;2023-02-28T14:10:51;9.70;46.20
78775;DHT22;68119;43.398;3.676;2023-02-28T14:13:44;9.50;45.60
78775;DHT22;68119;43.398;3.676;2023-02-28T14:16:21;9.20;46.50
78775;DHT22;68119;43.398;3.676;2023-02-28T14:18:55;9.20;46.30
78775;DHT22;68119;43.398;3.676;2023-02-28T14:21:27;8.80;46.70
78775;DHT22;68119;43.398;3.676;2023-02-28T14:24:06;8.90;46.60
78775;DHT22;68119;43.398;3.676;2023-02-28T14:27:00;8.80;46.80
78775;DHT22;68119;43.398;3.676;2023-02-28T14:37:27;8.40;47.40
78775;DHT22;68119;43.398;3.676;2023-02-28T14:39:57;8.40;47.70
78775;DHT22;68119;43.398;3.676;2023-02-28T14:42:33;8.30;47.60
78775;DHT22;68119;43.398;3.676;2023-02-28T14:45:20;8.40;47.30
78775;DHT22;68119;43.398;3.676;2023-02-28T14:47:51;8.30;47.50
78775;DHT22;68119;43.398;3.676;2023-02-28T14:50:32;8.30;47.60
78775;DHT22;68119;43.398;3.676;2023-02-28T14:52:59;8.10;48.20
78775;DHT22;68119;43.398;3.676;2023-02-28T14:55:34;8.10;47.70
78775;DHT22;68119;43.398;3.676;2023-02-28T14:58:05;8.00;48.00
78775;DHT22;68119;43.398;3.676;2023-02-28T15:00:47;8.00;48.10
78775;DHT22;68119;43.398;3.676;2023-02-28T15:03:35;8.00;48.80
78775;DHT22;68119;43.398;3.676;2023-02-28T15:06:15;8.00;48.20
78775;DHT22;68119;43.398;3.676;2023-02-28T15:08:47;7.80;48.50
78775;DHT22;68119;43.398;3.676;2023-02-28T15:11:16;7.80;48.90
78775;DHT22;68119;43.398;3.676;2023-02-28T15:13:50;7.80;49.30
78775;DHT22;68119;43.398;3.676;2023-02-28T15:16:39;7.70;48.70
78775;DHT22;68119;43.398;3.676;2023-02-28T15:19:20;7.60;49.10
78775;DHT22;68119;43.398;3.676;2023-02-28T15:21:51;7.50;48.20
78775;DHT22;68119;43.398;3.676;2023-02-28T15:26:53;7.50;49.30
78775;DHT22;68119;43.398;3.676;2023-02-28T15:29:25;7.50;48.60
78775;DHT22;68119;43.398;3.676;2023-02-28T15:32:05;7.30;48.90
78775;DHT22;68119;43.398;3.676;2023-02-28T15:34:43;7.30;49.40
78775;DHT22;68119;43.398;3.676;2023-02-28T15:40:32;7.40;49.50
78775;DHT22;68119;43.398;3.676;2023-02-28T15:46:16;7.20;49.50
78775;DHT22;68119;43.398;3.676;2023-02-28T15:48:54;7.20;49.50
78775;DHT22;68119;43.398;3.676;2023-02-28T15:51:35;7.30;49.60
78775;DHT22;68119;43.398;3.676;2023-02-28T15:54:15;7.20;49.90
78775;DHT22;68119;43.398;3.676;2023-02-28T15:57:12;7.30;50.10
78775;DHT22;68119;43.398;3.676;2023-02-28T15:59:39;7.40;50.40
78775;DHT22;68119;43.398;3.676;2023-02-28T16:07:23;7.20;50.00
78775;DHT22;68119;43.398;3.676;2023-02-28T16:09:51;7.20;49.40
78775;DHT22;68119;43.398;3.676;2023-02-28T16:12:20;7.10;49.30
78775;DHT22;68119;43.398;3.676;2023-02-28T16:14:50;7.10;49.10
78775;DHT22;68119;43.398;3.676;2023-02-28T16:17:21;7.00;49.30
78775;DHT22;68119;43.398;3.676;2023-02-28T16:19:49;7.00;49.20
78775;DHT22;68119;43.398;3.676;2023-02-28T16:22:15;6.90;49.30
78775;DHT22;68119;43.398;3.676;2023-02-28T16:24:41;6.90;49.80
78775;DHT22;68119;43.398;3.676;2023-02-28T16:27:32;6.90;49.60
78775;DHT22;68119;43.398;3.676;2023-02-28T16:29:59;6.80;49.70
78775;DHT22;68119;43.398;3.676;2023-02-28T16:32:25;6.80;50.00
78775;DHT22;68119;43.398;3.676;2023-02-28T16:34:54;6.80;49.40
78775;DHT22;68119;43.398;3.676;2023-02-28T16:37:24;6.70;49.60
78775;DHT22;68119;43.398;3.676;2023-02-28T16:39:50;6.70;49.90
78775;DHT22;68119;43.398;3.676;2023-02-28T16:42:26;6.70;49.90
78775;DHT22;68119;43.398;3.676;2023-02-28T16:44:59;6.70;50.20
78775;DHT22;68119;43.398;3.676;2023-02-28T16:47:28;6.70;50.40
78775;DHT22;68119;43.398;3.676;2023-02-28T16:49:54;6.60;49.80
78775;DHT22;68119;43.398;3.676;2023-02-28T16:52:24;6.60;50.00
78775;DHT22;68119;43.398;3.676;2023-02-28T16:54:55;6.50;50.10
78775;DHT22;68119;43.398;3.676;2023-02-28T16:57:30;6.50;50.50
78775;DHT22;68119;43.398;3.676;2023-02-28T16:59:59;6.50;50.50
78775;DHT22;68119;43.398;3.676;2023-02-28T17:02:27;6.50;50.90
78775;DHT22;68119;43.398;3.676;2023-02-28T17:04:58;6.40;50.20
78775;DHT22;68119;43.398;3.676;2023-02-28T17:07:29;6.40;50.40
78775;DHT22;68119;43.398;3.676;2023-02-28T17:09:59;6.40;50.70
78775;DHT22;68119;43.398;3.676;2023-02-28T17:12:36;6.40;50.80
78775;DHT22;68119;43.398;3.676;2023-02-28T17:15:09;6.40;50.50
78775;DHT22;68119;43.398;3.676;2023-02-28T17:17:37;6.40;51.00
78775;DHT22;68119;43.398;3.676;2023-02-28T17:20:16;6.40;50.80
78775;DHT22;68119;43.398;3.676;2023-02-28T17:22:45;6.40;50.80
78775;DHT22;68119;43.398;3.676;2023-02-28T17:25:22;6.50;50.50
78775;DHT22;68119;43.398;3.676;2023-02-28T17:27:52;6.40;50.20
78775;DHT22;68119;43.398;3.676;2023-02-28T17:30:23;6.40;50.80
78775;DHT22;68119;43.398;3.676;2023-02-28T17:33:00;6.40;50.90
78775;DHT22;68119;43.398;3.676;2023-02-28T17:35:28;6.30;51.50
78775;DHT22;68119;43.398;3.676;2023-02-28T17:37:59;6.30;51.60
78775;DHT22;68119;43.398;3.676;2023-02-28T17:40:25;6.30;51.40
78775;DHT22;68119;43.398;3.676;2023-02-28T17:42:53;6.30;51.20
78775;DHT22;68119;43.398;3.676;2023-02-28T17:45:23;6.20;51.20
78775;DHT22;68119;43.398;3.676;2023-02-28T17:47:53;6.20;50.80
78775;DHT22;68119;43.398;3.676;2023-02-28T17:50:27;6.20;51.00
78775;DHT22;68119;43.398;3.676;2023-02-28T17:52:55;6.20;51.20
78775;DHT22;68119;43.398;3.676;2023-02-28T17:55:34;6.20;51.40
78775;DHT22;68119;43.398;3.676;2023-02-28T17:58:02;6.20;51.50
78775;DHT22;68119;43.398;3.676;2023-02-28T18:00:33;6.20;51.40
78775;DHT22;68119;43.398;3.676;2023-02-28T18:03:08;6.10;51.50
78775;DHT22;68119;43.398;3.676;2023-02-28T18:05:40;6.20;51.30
78775;DHT22;68119;43.398;3.676;2023-02-28T18:08:06;6.20;51.20
78775;DHT22;68119;43.398;3.676;2023-02-28T18:10:34;6.10;51.50
78775;DHT22;68119;43.398;3.676;2023-02-28T18:13:02;6.10;51.10
78775;DHT22;68119;43.398;3.676;2023-02-28T18:15:32;6.10;51.30
78775;DHT22;68119;43.398;3.676;2023-02-28T18:18:07;6.10;51.30
78775;DHT22;68119;43.398;3.676;2023-02-28T18:20:34;6.10;51.00
78775;DHT22;68119;43.398;3.676;2023-02-28T18:23:02;6.10;51.00
78775;DHT22;68119;43.398;3.676;2023-02-28T18:25:28;6.10;51.30
78775;DHT22;68119;43.398;3.676;2023-02-28T18:27:56;6.10;51.50
78775;DHT22;68119;43.398;3.676;2023-02-28T18:30:35;6.10;51.20
78775;DHT22;68119;43.398;3.676;2023-02-28T18:33:07;6.00;51.20
78775;DHT22;68119;43.398;3.676;2023-02-28T18:35:33;6.00;51.30
78775;DHT22;68119;43.398;3.676;2023-02-28T18:38:06;6.00;51.40